sensor_id;sensor_type;location;lat;lon;timestamp;pressure;altitude;pressure_sealevel;temperature;humidity
76337;BME280;65157;50.082;18.178;2023-01-24T00:01:27;101159.24;;;1.45;88.51
76337;BME280;65157;50.082;18.178;2023-01-24T00:03:53;101154.02;;;1.44;88.37
76337;BME280;65157;50.082;18.178;2023-01-24T00:06:21;101144.42;;;1.43;88.39
76337;BME280;65157;50.082;18.178;2023-01-24T00:08:48;101150.19;;;1.44;88.32
76337;BME280;65157;50.082;18.178;2023-01-24T00:11:14;101149.65;;;1.43;88.45
76337;BME280;65157;50.082;18.178;2023-01-24T00:13:41;101154.02;;;1.45;88.60
76337;BME280;65157;50.082;18.178;2023-01-24T00:16:12;101151.41;;;1.44;88.41
76337;BME280;65157;50.082;18.178;2023-01-24T00:18:39;101148.79;;;1.44;88.41
76337;BME280;65157;50.082;18.178;2023-01-24T00:21:09;101146.29;;;1.42;88.48
76337;BME280;65157;50.082;18.178;2023-01-24T00:23:40;101150.69;;;1.43;88.46
76337;BME280;65157;50.082;18.178;2023-01-24T00:26:07;101154.15;;;1.43;88.46
76337;BME280;65157;50.082;18.178;2023-01-24T00:28:34;101160.73;;;1.43;88.35
76337;BME280;65157;50.082;18.178;2023-01-24T00:31:02;101155.17;;;1.42;88.56
76337;BME280;65157;50.082;18.178;2023-01-24T00:33:29;101148.91;;;1.35;88.62
76337;BME280;65157;50.082;18.178;2023-01-24T00:35:55;101159.15;;;1.41;88.70
76337;BME280;65157;50.082;18.178;2023-01-24T00:38:22;101163.52;;;1.42;88.40
76337;BME280;65157;50.082;18.178;2023-01-24T00:40:49;101166.17;;;1.44;88.37
76337;BME280;65157;50.082;18.178;2023-01-24T00:43:16;101165.88;;;1.46;88.66
76337;BME280;65157;50.082;18.178;2023-01-24T00:45:44;101163.63;;;1.46;88.56
76337;BME280;65157;50.082;18.178;2023-01-24T00:48:11;101158.73;;;1.45;88.41
76337;BME280;65157;50.082;18.178;2023-01-24T00:50:38;101166.76;;;1.46;88.68
76337;BME280;65157;50.082;18.178;2023-01-24T00:53:05;101166.63;;;1.47;88.47
76337;BME280;65157;50.082;18.178;2023-01-24T00:55:32;101170.45;;;1.48;88.58
76337;BME280;65157;50.082;18.178;2023-01-24T00:57:58;101173.09;;;1.49;88.57
76337;BME280;65157;50.082;18.178;2023-01-24T01:00:26;101175.02;;;1.50;88.58
76337;BME280;65157;50.082;18.178;2023-01-24T01:02:52;101170.14;;;1.49;88.35
76337;BME280;65157;50.082;18.178;2023-01-24T01:05:19;101168.19;;;1.47;88.40
76337;BME280;65157;50.082;18.178;2023-01-24T01:07:46;101176.14;;;1.45;88.68
76337;BME280;65157;50.082;18.178;2023-01-24T01:10:12;101178.40;;;1.45;88.39
76337;BME280;65157;50.082;18.178;2023-01-24T01:12:39;101178.71;;;1.44;88.46
76337;BME280;65157;50.082;18.178;2023-01-24T01:15:06;101180.66;;;1.45;88.55
76337;BME280;65157;50.082;18.178;2023-01-24T01:17:33;101177.35;;;1.45;88.32
76337;BME280;65157;50.082;18.178;2023-01-24T01:19:59;101178.37;;;1.44;88.35
76337;BME280;65157;50.082;18.178;2023-01-24T01:22:26;101182.73;;;1.45;88.25
76337;BME280;65157;50.082;18.178;2023-01-24T01:24:53;101183.77;;;1.44;88.48
76337;BME280;65157;50.082;18.178;2023-01-24T01:27:19;101184.48;;;1.44;88.65
76337;BME280;65157;50.082;18.178;2023-01-24T01:29:46;101183.01;;;1.42;88.49
76337;BME280;65157;50.082;18.178;2023-01-24T01:32:12;101179.96;;;1.39;88.20
76337;BME280;65157;50.082;18.178;2023-01-24T01:34:39;101186.70;;;1.43;88.43
76337;BME280;65157;50.082;18.178;2023-01-24T01:37:05;101180.79;;;1.43;88.26
76337;BME280;65157;50.082;18.178;2023-01-24T01:39:32;101181.77;;;1.41;88.52
76337;BME280;65157;50.082;18.178;2023-01-24T01:41:58;101182.06;;;1.39;88.37
76337;BME280;65157;50.082;18.178;2023-01-24T01:44:27;101179.55;;;1.36;88.59
76337;BME280;65157;50.082;18.178;2023-01-24T01:49:34;101176.02;;;1.34;88.67
76337;BME280;65157;50.082;18.178;2023-01-24T01:52:03;101176.58;;;1.36;88.70
76337;BME280;65157;50.082;18.178;2023-01-24T01:54:36;101183.56;;;1.36;88.30
76337;BME280;65157;50.082;18.178;2023-01-24T01:57:31;101181.44;;;1.35;88.45
76337;BME280;65157;50.082;18.178;2023-01-24T02:00:02;101182.51;;;1.36;88.49
76337;BME280;65157;50.082;18.178;2023-01-24T02:02:31;101185.14;;;1.36;88.65
76337;BME280;65157;50.082;18.178;2023-01-24T02:05:02;101183.20;;;1.36;88.61
76337;BME280;65157;50.082;18.178;2023-01-24T02:07:36;101183.35;;;1.35;88.41
76337;BME280;65157;50.082;18.178;2023-01-24T02:10:06;101180.20;;;1.35;88.57
76337;BME280;65157;50.082;18.178;2023-01-24T02:12:37;101177.24;;;1.34;88.41
76337;BME280;65157;50.082;18.178;2023-01-24T02:15:16;101176.61;;;1.36;88.51
76337;BME280;65157;50.082;18.178;2023-01-24T02:18:02;101173.91;;;1.34;88.61
76337;BME280;65157;50.082;18.178;2023-01-24T02:20:36;101179.51;;;1.34;88.64
76337;BME280;65157;50.082;18.178;2023-01-24T02:26:24;101172.09;;;1.37;88.46
76337;BME280;65157;50.082;18.178;2023-01-24T02:28:56;101172.13;;;1.38;88.59
76337;BME280;65157;50.082;18.178;2023-01-24T02:31:24;101172.84;;;1.39;88.51
76337;BME280;65157;50.082;18.178;2023-01-24T02:33:51;101173.75;;;1.41;88.51
76337;BME280;65157;50.082;18.178;2023-01-24T02:39:26;101172.48;;;1.45;88.36
76337;BME280;65157;50.082;18.178;2023-01-24T02:41:58;101171.27;;;1.45;88.29
76337;BME280;65157;50.082;18.178;2023-01-24T02:44:39;101173.77;;;1.48;88.31
76337;BME280;65157;50.082;18.178;2023-01-24T02:47:08;101173.98;;;1.49;88.19
76337;BME280;65157;50.082;18.178;2023-01-24T02:49:34;101172.78;;;1.50;88.26
76337;BME280;65157;50.082;18.178;2023-01-24T02:52:01;101177.85;;;1.51;88.23
76337;BME280;65157;50.082;18.178;2023-01-24T02:54:46;101172.65;;;1.52;88.32
76337;BME280;65157;50.082;18.178;2023-01-24T02:57:12;101177.65;;;1.49;88.13
76337;BME280;65157;50.082;18.178;2023-01-24T02:59:58;101177.27;;;1.49;88.29
76337;BME280;65157;50.082;18.178;2023-01-24T03:02:24;101180.27;;;1.50;88.21
76337;BME280;65157;50.082;18.178;2023-01-24T03:04:51;101179.92;;;1.51;88.09
76337;BME280;65157;50.082;18.178;2023-01-24T03:07:17;101180.45;;;1.51;88.36
76337;BME280;65157;50.082;18.178;2023-01-24T03:09:44;101179.59;;;1.51;88.30
76337;BME280;65157;50.082;18.178;2023-01-24T03:12:13;101178.54;;;1.51;88.21
76337;BME280;65157;50.082;18.178;2023-01-24T03:14:59;101181.17;;;1.51;88.05
76337;BME280;65157;50.082;18.178;2023-01-24T03:17:44;101186.83;;;1.48;88.19
76337;BME280;65157;50.082;18.178;2023-01-24T03:20:29;101189.59;;;1.47;88.27
76337;BME280;65157;50.082;18.178;2023-01-24T03:23:14;101186.34;;;1.43;88.35
76337;BME280;65157;50.082;18.178;2023-01-24T03:25:59;101192.25;;;1.43;88.30
76337;BME280;65157;50.082;18.178;2023-01-24T03:28:44;101192.59;;;1.43;88.36
76337;BME280;65157;50.082;18.178;2023-01-24T03:31:30;101189.94;;;1.41;88.32
76337;BME280;65157;50.082;18.178;2023-01-24T03:34:15;101192.16;;;1.46;88.42
76337;BME280;65157;50.082;18.178;2023-01-24T03:37:00;101186.92;;;1.45;88.24
76337;BME280;65157;50.082;18.178;2023-01-24T03:39:27;101179.92;;;1.44;88.42
76337;BME280;65157;50.082;18.178;2023-01-24T03:42:12;101182.94;;;1.46;88.35
76337;BME280;65157;50.082;18.178;2023-01-24T03:44:39;101186.00;;;1.43;88.40
76337;BME280;65157;50.082;18.178;2023-01-24T03:47:05;101185.28;;;1.42;88.34
76337;BME280;65157;50.082;18.178;2023-01-24T03:49:32;101187.67;;;1.40;88.52
76337;BME280;65157;50.082;18.178;2023-01-24T03:52:17;101189.04;;;1.39;88.44
76337;BME280;65157;50.082;18.178;2023-01-24T03:54:59;101186.92;;;1.38;88.56
76337;BME280;65157;50.082;18.178;2023-01-24T03:57:27;101192.16;;;1.39;88.63
76337;BME280;65157;50.082;18.178;2023-01-24T03:59:55;101194.77;;;1.40;88.57
76337;BME280;65157;50.082;18.178;2023-01-24T04:02:21;101195.15;;;1.40;88.50
76337;BME280;65157;50.082;18.178;2023-01-24T04:04:48;101193.45;;;1.42;88.55
76337;BME280;65157;50.082;18.178;2023-01-24T04:07:33;101191.79;;;1.45;88.49
76337;BME280;65157;50.082;18.178;2023-01-24T04:09:59;101188.48;;;1.45;88.53
76337;BME280;65157;50.082;18.178;2023-01-24T04:12:26;101186.97;;;1.47;88.26
76337;BME280;65157;50.082;18.178;2023-01-24T04:14:53;101186.66;;;1.49;88.57
76337;BME280;65157;50.082;18.178;2023-01-24T04:17:20;101188.41;;;1.49;88.43
76337;BME280;65157;50.082;18.178;2023-01-24T04:19:46;101191.52;;;1.48;88.41
76337;BME280;65157;50.082;18.178;2023-01-24T04:22:15;101191.87;;;1.48;88.32
76337;BME280;65157;50.082;18.178;2023-01-24T04:24:43;101191.69;;;1.48;88.40
76337;BME280;65157;50.082;18.178;2023-01-24T04:27:10;101187.00;;;1.48;88.40
76337;BME280;65157;50.082;18.178;2023-01-24T04:29:37;101186.83;;;1.48;88.33
76337;BME280;65157;50.082;18.178;2023-01-24T04:32:04;101186.36;;;1.50;88.33
76337;BME280;65157;50.082;18.178;2023-01-24T04:34:30;101185.52;;;1.51;88.48
76337;BME280;65157;50.082;18.178;2023-01-24T04:36:57;101184.12;;;1.51;88.44
76337;BME280;65157;50.082;18.178;2023-01-24T04:39:24;101185.33;;;1.51;88.18
76337;BME280;65157;50.082;18.178;2023-01-24T04:41:50;101185.34;;;1.51;88.29
76337;BME280;65157;50.082;18.178;2023-01-24T04:44:17;101183.27;;;1.52;88.41
76337;BME280;65157;50.082;18.178;2023-01-24T04:46:43;101182.16;;;1.49;88.54
76337;BME280;65157;50.082;18.178;2023-01-24T04:49:10;101188.11;;;1.51;88.36
76337;BME280;65157;50.082;18.178;2023-01-24T04:51:37;101184.30;;;1.51;88.46
76337;BME280;65157;50.082;18.178;2023-01-24T04:54:03;101183.56;;;1.50;88.40
76337;BME280;65157;50.082;18.178;2023-01-24T04:56:30;101184.96;;;1.50;88.25
76337;BME280;65157;50.082;18.178;2023-01-24T04:58:57;101182.21;;;1.52;88.41
76337;BME280;65157;50.082;18.178;2023-01-24T05:01:24;101180.67;;;1.53;88.36
76337;BME280;65157;50.082;18.178;2023-01-24T05:03:50;101179.79;;;1.52;88.31
76337;BME280;65157;50.082;18.178;2023-01-24T05:06:17;101174.20;;;1.51;88.22
76337;BME280;65157;50.082;18.178;2023-01-24T05:08:44;101174.58;;;1.52;88.43
76337;BME280;65157;50.082;18.178;2023-01-24T05:11:10;101172.67;;;1.53;88.30
76337;BME280;65157;50.082;18.178;2023-01-24T05:13:37;101175.14;;;1.54;88.27
76337;BME280;65157;50.082;18.178;2023-01-24T05:16:04;101173.23;;;1.55;88.25
76337;BME280;65157;50.082;18.178;2023-01-24T05:18:30;101176.52;;;1.54;88.25
76337;BME280;65157;50.082;18.178;2023-01-24T05:21:13;101174.95;;;1.54;88.31
76337;BME280;65157;50.082;18.178;2023-01-24T05:23:41;101180.17;;;1.54;88.38
76337;BME280;65157;50.082;18.178;2023-01-24T05:26:08;101178.78;;;1.54;88.39
76337;BME280;65157;50.082;18.178;2023-01-24T05:28:35;101177.57;;;1.54;88.36
76337;BME280;65157;50.082;18.178;2023-01-24T05:31:05;101179.46;;;1.53;88.37
76337;BME280;65157;50.082;18.178;2023-01-24T05:33:34;101183.80;;;1.53;88.52
76337;BME280;65157;50.082;18.178;2023-01-24T05:36:04;101183.79;;;1.52;88.41
76337;BME280;65157;50.082;18.178;2023-01-24T05:38:31;101184.98;;;1.51;88.41
76337;BME280;65157;50.082;18.178;2023-01-24T05:41:03;101189.09;;;1.48;88.52
76337;BME280;65157;50.082;18.178;2023-01-24T05:43:30;101189.74;;;1.47;88.46
76337;BME280;65157;50.082;18.178;2023-01-24T05:46:04;101191.34;;;1.47;88.60
76337;BME280;65157;50.082;18.178;2023-01-24T05:48:31;101193.02;;;1.45;88.65
76337;BME280;65157;50.082;18.178;2023-01-24T05:51:06;101198.04;;;1.45;88.41
76337;BME280;65157;50.082;18.178;2023-01-24T05:53:36;101199.55;;;1.43;88.62
76337;BME280;65157;50.082;18.178;2023-01-24T05:56:15;101201.80;;;1.42;88.78
76337;BME280;65157;50.082;18.178;2023-01-24T05:58:43;101202.83;;;1.42;88.69
76337;BME280;65157;50.082;18.178;2023-01-24T06:01:15;101201.10;;;1.35;88.84
76337;BME280;65157;50.082;18.178;2023-01-24T06:03:45;101206.16;;;1.36;88.81
76337;BME280;65157;50.082;18.178;2023-01-24T06:06:14;101213.63;;;1.35;88.88
76337;BME280;65157;50.082;18.178;2023-01-24T06:08:42;101215.66;;;1.34;88.85
76337;BME280;65157;50.082;18.178;2023-01-24T06:11:19;101216.32;;;1.32;88.94
76337;BME280;65157;50.082;18.178;2023-01-24T06:13:46;101217.18;;;1.32;89.09
76337;BME280;65157;50.082;18.178;2023-01-24T06:16:18;101215.46;;;1.32;88.92
76337;BME280;65157;50.082;18.178;2023-01-24T06:18:45;101222.40;;;1.31;89.00
76337;BME280;65157;50.082;18.178;2023-01-24T06:21:16;101222.20;;;1.30;89.04
76337;BME280;65157;50.082;18.178;2023-01-24T06:23:44;101222.22;;;1.32;89.04
76337;BME280;65157;50.082;18.178;2023-01-24T06:26:11;101221.94;;;1.33;89.05
76337;BME280;65157;50.082;18.178;2023-01-24T06:28:38;101226.98;;;1.34;89.14
76337;BME280;65157;50.082;18.178;2023-01-24T06:31:34;101230.52;;;1.36;88.97
76337;BME280;65157;50.082;18.178;2023-01-24T06:34:22;101235.04;;;1.36;89.11
76337;BME280;65157;50.082;18.178;2023-01-24T06:39:25;101239.58;;;1.36;89.09
76337;BME280;65157;50.082;18.178;2023-01-24T06:41:52;101239.95;;;1.38;89.05
76337;BME280;65157;50.082;18.178;2023-01-24T06:44:19;101245.69;;;1.37;89.06
76337;BME280;65157;50.082;18.178;2023-01-24T06:46:46;101247.92;;;1.37;89.17
76337;BME280;65157;50.082;18.178;2023-01-24T06:49:12;101247.77;;;1.37;89.09
76337;BME280;65157;50.082;18.178;2023-01-24T06:51:39;101247.73;;;1.36;89.08
76337;BME280;65157;50.082;18.178;2023-01-24T06:54:06;101253.33;;;1.36;89.19
76337;BME280;65157;50.082;18.178;2023-01-24T06:56:32;101257.34;;;1.37;89.13
76337;BME280;65157;50.082;18.178;2023-01-24T06:58:59;101256.87;;;1.39;89.33
76337;BME280;65157;50.082;18.178;2023-01-24T07:01:26;101259.69;;;1.40;89.22
76337;BME280;65157;50.082;18.178;2023-01-24T07:03:52;101260.59;;;1.41;89.02
76337;BME280;65157;50.082;18.178;2023-01-24T07:06:19;101261.13;;;1.42;89.03
76337;BME280;65157;50.082;18.178;2023-01-24T07:08:48;101259.80;;;1.44;89.09
76337;BME280;65157;50.082;18.178;2023-01-24T07:11:15;101262.65;;;1.47;88.95
76337;BME280;65157;50.082;18.178;2023-01-24T07:13:41;101262.86;;;1.48;88.81
76337;BME280;65157;50.082;18.178;2023-01-24T07:16:08;101263.63;;;1.51;88.98
76337;BME280;65157;50.082;18.178;2023-01-24T07:18:35;101265.38;;;1.51;89.15
76337;BME280;65157;50.082;18.178;2023-01-24T07:21:06;101262.96;;;1.52;89.13
76337;BME280;65157;50.082;18.178;2023-01-24T07:23:33;101262.60;;;1.51;88.98
76337;BME280;65157;50.082;18.178;2023-01-24T07:26:01;101266.10;;;1.52;89.04
76337;BME280;65157;50.082;18.178;2023-01-24T07:28:29;101269.45;;;1.54;88.91
76337;BME280;65157;50.082;18.178;2023-01-24T07:30:56;101270.16;;;1.55;89.00
76337;BME280;65157;50.082;18.178;2023-01-24T07:33:22;101271.95;;;1.56;88.96
76337;BME280;65157;50.082;18.178;2023-01-24T07:35:49;101273.54;;;1.57;88.90
76337;BME280;65157;50.082;18.178;2023-01-24T07:38:16;101271.85;;;1.59;89.02
76337;BME280;65157;50.082;18.178;2023-01-24T07:40:42;101268.48;;;1.56;88.91
76337;BME280;65157;50.082;18.178;2023-01-24T07:43:09;101272.92;;;1.60;88.89
76337;BME280;65157;50.082;18.178;2023-01-24T07:45:36;101269.29;;;1.61;89.09
76337;BME280;65157;50.082;18.178;2023-01-24T07:48:05;101271.24;;;1.62;88.94
76337;BME280;65157;50.082;18.178;2023-01-24T07:50:34;101271.41;;;1.61;88.81
76337;BME280;65157;50.082;18.178;2023-01-24T07:53:01;101276.48;;;1.63;89.03
76337;BME280;65157;50.082;18.178;2023-01-24T07:55:27;101275.13;;;1.64;89.05
76337;BME280;65157;50.082;18.178;2023-01-24T07:57:59;101273.27;;;1.66;88.95
76337;BME280;65157;50.082;18.178;2023-01-24T08:00:26;101271.05;;;1.68;88.84
76337;BME280;65157;50.082;18.178;2023-01-24T08:02:52;101272.27;;;1.69;89.00
76337;BME280;65157;50.082;18.178;2023-01-24T08:05:19;101273.52;;;1.70;88.78
76337;BME280;65157;50.082;18.178;2023-01-24T08:07:46;101273.39;;;1.71;88.89
76337;BME280;65157;50.082;18.178;2023-01-24T08:10:13;101271.02;;;1.74;88.75
76337;BME280;65157;50.082;18.178;2023-01-24T08:12:40;101270.71;;;1.75;88.75
76337;BME280;65157;50.082;18.178;2023-01-24T08:15:07;101269.52;;;1.76;88.75
76337;BME280;65157;50.082;18.178;2023-01-24T08:17:35;101276.35;;;1.78;88.80
76337;BME280;65157;50.082;18.178;2023-01-24T08:20:02;101273.08;;;1.79;88.85
76337;BME280;65157;50.082;18.178;2023-01-24T08:22:29;101272.98;;;1.82;88.56
76337;BME280;65157;50.082;18.178;2023-01-24T08:24:56;101272.89;;;1.86;88.54
76337;BME280;65157;50.082;18.178;2023-01-24T08:27:22;101272.05;;;1.87;88.65
76337;BME280;65157;50.082;18.178;2023-01-24T08:29:49;101276.91;;;1.86;88.70
76337;BME280;65157;50.082;18.178;2023-01-24T08:32:16;101278.14;;;1.87;88.61
76337;BME280;65157;50.082;18.178;2023-01-24T08:34:43;101280.42;;;1.88;88.65
76337;BME280;65157;50.082;18.178;2023-01-24T08:37:09;101278.36;;;1.89;88.56
76337;BME280;65157;50.082;18.178;2023-01-24T08:39:36;101276.66;;;1.90;88.62
76337;BME280;65157;50.082;18.178;2023-01-24T08:42:02;101279.16;;;1.93;88.44
76337;BME280;65157;50.082;18.178;2023-01-24T08:44:29;101281.30;;;1.94;88.58
76337;BME280;65157;50.082;18.178;2023-01-24T08:46:56;101285.89;;;1.97;88.41
76337;BME280;65157;50.082;18.178;2023-01-24T08:49:22;101283.84;;;1.98;88.32
76337;BME280;65157;50.082;18.178;2023-01-24T08:51:49;101281.07;;;2.00;88.52
76337;BME280;65157;50.082;18.178;2023-01-24T08:54:16;101279.23;;;2.02;88.55
76337;BME280;65157;50.082;18.178;2023-01-24T08:56:43;101281.04;;;2.05;88.58
76337;BME280;65157;50.082;18.178;2023-01-24T08:59:10;101280.19;;;2.06;88.33
76337;BME280;65157;50.082;18.178;2023-01-24T09:01:36;101278.83;;;2.07;88.47
76337;BME280;65157;50.082;18.178;2023-01-24T09:04:03;101283.56;;;2.08;88.49
76337;BME280;65157;50.082;18.178;2023-01-24T09:06:31;101285.23;;;2.12;88.41
76337;BME280;65157;50.082;18.178;2023-01-24T09:08:57;101288.93;;;2.15;88.42
76337;BME280;65157;50.082;18.178;2023-01-24T09:11:24;101288.95;;;2.15;88.31
76337;BME280;65157;50.082;18.178;2023-01-24T09:13:51;101288.77;;;2.15;88.14
76337;BME280;65157;50.082;18.178;2023-01-24T09:16:17;101287.47;;;2.11;88.31
76337;BME280;65157;50.082;18.178;2023-01-24T09:18:44;101299.85;;;2.13;88.33
76337;BME280;65157;50.082;18.178;2023-01-24T09:21:11;101300.21;;;2.13;88.18
76337;BME280;65157;50.082;18.178;2023-01-24T09:23:38;101293.23;;;2.11;88.06
76337;BME280;65157;50.082;18.178;2023-01-24T09:26:04;101293.58;;;2.12;88.07
76337;BME280;65157;50.082;18.178;2023-01-24T09:28:31;101293.42;;;2.13;88.00
76337;BME280;65157;50.082;18.178;2023-01-24T09:30:59;101294.68;;;2.14;87.93
76337;BME280;65157;50.082;18.178;2023-01-24T09:33:26;101296.61;;;2.14;88.15
76337;BME280;65157;50.082;18.178;2023-01-24T09:36:01;101296.44;;;2.14;88.09
76337;BME280;65157;50.082;18.178;2023-01-24T09:38:30;101295.75;;;2.16;87.94
76337;BME280;65157;50.082;18.178;2023-01-24T09:41:17;101293.86;;;2.16;88.10
76337;BME280;65157;50.082;18.178;2023-01-24T09:44:02;101293.04;;;2.18;87.99
76337;BME280;65157;50.082;18.178;2023-01-24T09:46:41;101290.54;;;2.16;88.13
76337;BME280;65157;50.082;18.178;2023-01-24T09:52:01;101288.20;;;2.20;88.03
76337;BME280;65157;50.082;18.178;2023-01-24T09:57:48;101287.93;;;2.23;87.76
76337;BME280;65157;50.082;18.178;2023-01-24T10:00:25;101287.41;;;2.23;87.89
76337;BME280;65157;50.082;18.178;2023-01-24T10:02:54;101289.31;;;2.22;87.72
76337;BME280;65157;50.082;18.178;2023-01-24T10:05:21;101283.54;;;2.22;87.73
76337;BME280;65157;50.082;18.178;2023-01-24T10:08:11;101281.61;;;2.21;87.93
76337;BME280;65157;50.082;18.178;2023-01-24T10:10:59;101284.90;;;2.20;87.78
76337;BME280;65157;50.082;18.178;2023-01-24T10:22:18;101281.43;;;2.20;87.78
76337;BME280;65157;50.082;18.178;2023-01-24T10:25:24;101283.52;;;2.21;87.81
76337;BME280;65157;50.082;18.178;2023-01-24T10:27:53;101283.48;;;2.19;87.78
76337;BME280;65157;50.082;18.178;2023-01-24T10:30:43;101281.70;;;2.17;87.83
76337;BME280;65157;50.082;18.178;2023-01-24T10:33:18;101277.41;;;2.13;87.86
76337;BME280;65157;50.082;18.178;2023-01-24T10:35:57;101284.77;;;2.14;87.93
76337;BME280;65157;50.082;18.178;2023-01-24T10:38:25;101283.66;;;2.12;87.89
76337;BME280;65157;50.082;18.178;2023-01-24T10:40:53;101283.50;;;2.13;87.98
76337;BME280;65157;50.082;18.178;2023-01-24T10:43:24;101278.77;;;2.12;87.96
76337;BME280;65157;50.082;18.178;2023-01-24T10:46:11;101276.29;;;2.10;88.16
76337;BME280;65157;50.082;18.178;2023-01-24T10:48:45;101274.91;;;2.11;88.04
76337;BME280;65157;50.082;18.178;2023-01-24T10:51:17;101273.48;;;2.09;88.21
76337;BME280;65157;50.082;18.178;2023-01-24T10:53:45;101268.90;;;2.07;88.27
76337;BME280;65157;50.082;18.178;2023-01-24T10:56:19;101267.85;;;2.07;88.23
76337;BME280;65157;50.082;18.178;2023-01-24T10:59:00;101265.27;;;2.08;88.06
76337;BME280;65157;50.082;18.178;2023-01-24T11:01:33;101262.54;;;2.10;88.10
76337;BME280;65157;50.082;18.178;2023-01-24T11:04:21;101260.30;;;2.12;88.13
76337;BME280;65157;50.082;18.178;2023-01-24T11:06:50;101254.28;;;2.15;88.14
76337;BME280;65157;50.082;18.178;2023-01-24T11:09:22;101253.13;;;2.17;88.15
76337;BME280;65157;50.082;18.178;2023-01-24T11:11:55;101250.54;;;2.18;87.95
76337;BME280;65157;50.082;18.178;2023-01-24T11:14:27;101245.02;;;2.20;87.98
76337;BME280;65157;50.082;18.178;2023-01-24T11:16:57;101241.42;;;2.23;87.94
76337;BME280;65157;50.082;18.178;2023-01-24T11:19:30;101242.98;;;2.23;87.88
76337;BME280;65157;50.082;18.178;2023-01-24T11:22:02;101242.82;;;2.24;88.09
76337;BME280;65157;50.082;18.178;2023-01-24T11:24:30;101234.80;;;2.24;87.92
76337;BME280;65157;50.082;18.178;2023-01-24T11:27:07;101232.07;;;2.26;87.95
76337;BME280;65157;50.082;18.178;2023-01-24T11:29:39;101224.42;;;2.26;87.92
76337;BME280;65157;50.082;18.178;2023-01-24T11:32:46;101227.73;;;2.27;87.96
76337;BME280;65157;50.082;18.178;2023-01-24T11:35:24;101224.46;;;2.28;88.04
76337;BME280;65157;50.082;18.178;2023-01-24T11:53:51;101217.19;;;2.30;87.80
76337;BME280;65157;50.082;18.178;2023-01-24T12:02:47;101220.59;;;2.34;87.67
76337;BME280;65157;50.082;18.178;2023-01-24T12:07:57;101216.42;;;2.36;87.70
76337;BME280;65157;50.082;18.178;2023-01-24T12:16:14;101218.18;;;2.36;87.72
76337;BME280;65157;50.082;18.178;2023-01-24T12:21:21;101212.29;;;2.37;87.72
76337;BME280;65157;50.082;18.178;2023-01-24T12:24:12;101215.80;;;2.38;87.72
76337;BME280;65157;50.082;18.178;2023-01-24T12:26:47;101216.50;;;2.38;87.75
76337;BME280;65157;50.082;18.178;2023-01-24T12:29:32;101210.20;;;2.38;87.65
76337;BME280;65157;50.082;18.178;2023-01-24T12:32:23;101212.17;;;2.39;87.64
76337;BME280;65157;50.082;18.178;2023-01-24T12:35:04;101214.98;;;2.40;87.76
76337;BME280;65157;50.082;18.178;2023-01-24T12:37:53;101212.88;;;2.40;87.64
76337;BME280;65157;50.082;18.178;2023-01-24T12:40:49;101217.79;;;2.40;87.59
76337;BME280;65157;50.082;18.178;2023-01-24T12:46:08;101213.21;;;2.40;87.65
76337;BME280;65157;50.082;18.178;2023-01-24T12:48:53;101213.89;;;2.39;87.67
76337;BME280;65157;50.082;18.178;2023-01-24T12:51:28;101212.15;;;2.39;87.68
76337;BME280;65157;50.082;18.178;2023-01-24T12:57:17;101213.84;;;2.36;87.76
76337;BME280;65157;50.082;18.178;2023-01-24T12:59:45;101215.79;;;2.38;87.96
76337;BME280;65157;50.082;18.178;2023-01-24T13:02:27;101214.58;;;2.38;87.87
76337;BME280;65157;50.082;18.178;2023-01-24T13:10:43;101213.02;;;2.39;87.71
76337;BME280;65157;50.082;18.178;2023-01-24T13:13:17;101216.69;;;2.39;88.02
76337;BME280;65157;50.082;18.178;2023-01-24T13:15:51;101216.36;;;2.40;87.98
76337;BME280;65157;50.082;18.178;2023-01-24T13:27:14;101218.80;;;2.40;87.84
76337;BME280;65157;50.082;18.178;2023-01-24T13:32:48;101215.69;;;2.40;87.66
76337;BME280;65157;50.082;18.178;2023-01-24T13:35:19;101218.64;;;2.41;87.80
76337;BME280;65157;50.082;18.178;2023-01-24T13:38:23;101218.14;;;2.42;87.76
76337;BME280;65157;50.082;18.178;2023-01-24T13:41:05;101217.29;;;2.43;87.81
76337;BME280;65157;50.082;18.178;2023-01-24T13:46:03;101222.15;;;2.42;87.67
76337;BME280;65157;50.082;18.178;2023-01-24T13:54:04;101222.90;;;2.44;87.82
76337;BME280;65157;50.082;18.178;2023-01-24T13:59:37;101225.32;;;2.44;87.92
76337;BME280;65157;50.082;18.178;2023-01-24T14:02:30;101230.23;;;2.45;87.79
76337;BME280;65157;50.082;18.178;2023-01-24T14:04:57;101229.53;;;2.45;87.89
76337;BME280;65157;50.082;18.178;2023-01-24T14:07:30;101231.96;;;2.44;87.82
76337;BME280;65157;50.082;18.178;2023-01-24T14:10:04;101234.40;;;2.44;87.67
76337;BME280;65157;50.082;18.178;2023-01-24T14:12:52;101237.85;;;2.42;87.89
76337;BME280;65157;50.082;18.178;2023-01-24T14:15:26;101239.36;;;2.40;87.79
76337;BME280;65157;50.082;18.178;2023-01-24T14:17:56;101244.44;;;2.41;87.88
76337;BME280;65157;50.082;18.178;2023-01-24T14:20:36;101244.78;;;2.41;87.75
76337;BME280;65157;50.082;18.178;2023-01-24T14:23:28;101245.27;;;2.39;87.72
76337;BME280;65157;50.082;18.178;2023-01-24T14:25:57;101247.31;;;2.37;87.95
76337;BME280;65157;50.082;18.178;2023-01-24T14:28:39;101245.23;;;2.37;87.75
76337;BME280;65157;50.082;18.178;2023-01-24T14:31:25;101248.55;;;2.38;87.91
76337;BME280;65157;50.082;18.178;2023-01-24T14:34:13;101250.64;;;2.38;87.97
76337;BME280;65157;50.082;18.178;2023-01-24T14:36:43;101255.87;;;2.38;87.94
76337;BME280;65157;50.082;18.178;2023-01-24T14:39:24;101257.05;;;2.36;88.01
76337;BME280;65157;50.082;18.178;2023-01-24T14:41:56;101259.27;;;2.35;87.82
76337;BME280;65157;50.082;18.178;2023-01-24T14:44:25;101264.68;;;2.35;87.91
76337;BME280;65157;50.082;18.178;2023-01-24T14:49:34;101264.17;;;2.35;87.80